Historyczne dane pomiarowe

Dodano dane terminowe – wersja testowa.

Dane z okresu 1951-2019

Wersja bazy: 1.34 [2019-03-16, lista zmian], aktualizacja planowana na 2019-04-15

Dane meteo z obszaru Polski uzyskane na podstawie danych udostępnionych przez Instytut Meteorologii i Gospodarki Wodnej – Państwowy Instytut Badawczy.

 

Wybierz Datę:    

       

TemperaturaWilgotnośćZachmurzenieWiatrCiśnienieWidzialnośćZjawiska
 Data    tng td wb rh cc ccl cl cm ch dir g1 g2 mslp ppp      
1999-07-04 00:00:00 15.1--- 13.6 14.291wxwx1wx--1015.0 990.6 0.0---wx
1999-07-04 01:00:00 15.0--- 13.8 14.393wxwx2wx--1014.7 990.3----wx
1999-07-04 02:00:00 13.6--- 12.4 12.992wxwx1wx--1014.8 990.2----wx
1999-07-04 03:00:00 14.1--- 13.3 13.695wxwx2wx--1014.9 990.4----wx
1999-07-04 04:00:00 14.3--- 13.6 13.996wxwx2wx--1014.9 990.4----wx
1999-07-04 05:00:00 16.5--- 14.9 15.590wxwx2wx--1014.7 990.4----wx
1999-07-04 06:00:00 18.8--- 16.4 17.386wxwx3wx--1014.5 990.4 0.0---wx
1999-07-04 07:00:00 23.2--- 17.1 19.268wxwx4wx--1014.2 990.4----wx
1999-07-04 08:00:00 25.0--- 15.5 18.956wxwx4wx--1014.0 990.4----wx
1999-07-04 09:00:00 26.4--- 17.3 20.458wxwx3wx--1014.0 990.5----wx
1999-07-04 10:00:00 27.8--- 18.6 21.658wxwxwx3wx--1013.9 990.5----wx
1999-07-04 11:00:00 28.5--- 17.2 21.051wxwxwx4wx--1013.4 990.1----wx
1999-07-04 12:00:00 29.4--- 18.3 21.951wxwxwx4wx--1013.2 989.9 0.0---wx
1999-07-04 13:00:00 30.2--- 18.1 22.048wxwxwxwx4wx--1012.8 989.6----wx
1999-07-04 14:00:00 30.2--- 17.7 21.847wxwxwxwx3wx--1012.6 989.4----wx
1999-07-04 15:00:00 30.0--- 17.5 21.647wxwxwx3wx--1012.6 989.4----wx
1999-07-04 16:00:00 29.6--- 18.0 21.850wxwxwx2wx--1012.3 989.1----wx
1999-07-04 17:00:00 29.1--- 17.4 21.349wxwxwxwx2wx--1012.5 989.2----wx
1999-07-04 18:00:00 28.3--- 21.0 23.265wxwxwxwx2wx--1012.7 989.4 0.0---wx
1999-07-04 19:00:00 24.0--- 18.9 20.673wxwxwxwx0wx--1013.7 990.0----wx
1999-07-04 20:00:00 22.1--- 18.5 19.780wxwxwx1wx--1014.2 990.4----wx
1999-07-04 21:00:00 21.0--- 18.3 19.284wxwxwx0wx--1014.5 990.6----wx
1999-07-04 22:00:00 19.2--- 17.2 17.988wxwx1wx--1014.9 990.8----wx
1999-07-04 23:00:00 19.6--- 17.9 18.590wxwx2wx--1014.6 990.5----wx

 

Źródłem pochodzenia danych jest Instytut Meteorologii i Gospodarki Wodnej – Państwowy Instytut Badawczy. Dane Instytutu Meteorologii i Gospodarki Wodnej – Państwowego Instytutu Badawczego zostały przetworzone.

Dane źródłowe można odnaleźć na stronie https://dane.imgw.pl